Time;durP1;ratioP1;P1;durP2;ratioP2;P2;SDS_P1;SDS_P2;PMS_P1;PMS_P2;Temp;Humidity;BMP_temperature;BMP_pressure;BME280_temperature;BME280_humidity;BME280_pressure;Samples;Min_cycle;Max_cycle;Signal;HPM_P1;HPM_P2
2021/11/30 00:01:20;;;;;;;;;15.00;14.75;;;;;-147.17;100.00;50450.31;5055843;28;51151;-68
2021/11/30 00:03:46;;;;;;;;;12.50;12.50;;;;;-147.17;100.00;50477.88;5078542;28;51071;-70
2021/11/30 00:06:12;;;;;;;;;14.00;12.00;;;;;-147.17;100.00;50460.16;5076883;28;51261;-69
2021/11/30 00:08:38;;;;;;;;;13.50;13.50;;;;;-147.17;100.00;50462.13;5077307;28;51528;-66
2021/11/30 00:11:10;;;;;;;;;13.50;13.00;;;;;-147.17;100.00;50470.00;5055048;28;51070;-66
2021/11/30 00:13:37;;;;;;;;;14.00;14.00;;;;;-147.17;100.00;50458.19;5066328;28;51136;-67
2021/11/30 00:16:04;;;;;;;;;14.00;14.00;;;;;-147.17;100.00;50460.16;5075819;28;51221;-65
2021/11/30 00:18:32;;;;;;;;;15.75;15.00;;;;;-147.17;100.00;50434.56;5057897;28;51040;-70
2021/11/30 00:21:01;;;;;;;;;12.50;11.50;;;;;-147.17;100.00;50438.50;5068033;28;51065;-64
2021/11/30 00:23:26;;;;;;;;;17.00;15.50;;;;;-147.17;100.00;50475.91;5070760;28;50958;-66
2021/11/30 00:25:52;;;;;;;;;13.00;11.00;;;;;-147.17;100.00;50470.00;5057549;28;51398;-66
2021/11/30 00:28:17;;;;;;;;;11.75;11.00;;;;;-147.17;100.00;50448.34;5078984;27;51627;-67
2021/11/30 00:30:43;;;;;;;;;16.50;14.50;;;;;-147.17;100.00;50462.13;5074847;28;51157;-65
2021/11/30 00:33:09;;;;;;;;;13.25;13.00;;;;;-147.17;100.00;50450.31;5077270;28;53142;-66
2021/11/30 00:35:35;;;;;;;;;16.50;15.75;;;;;-147.17;100.00;50450.31;5078275;27;51087;-66
2021/11/30 00:38:00;;;;;;;;;14.00;13.00;;;;;-147.17;100.00;50438.50;5062397;28;53548;-66
2021/11/30 00:40:26;;;;;;;;;13.50;13.50;;;;;-147.17;100.00;50454.25;5071794;28;51114;-66
2021/11/30 00:42:52;;;;;;;;;16.75;12.00;;;;;-147.17;100.00;50450.31;5064392;28;50972;-67
2021/11/30 00:45:19;;;;;;;;;13.75;11.75;;;;;-147.17;100.00;50470.00;5063940;28;51029;-68
2021/11/30 00:47:54;;;;;;;;;17.00;15.25;;;;;-147.17;100.00;50470.00;5044741;27;52950;-68
2021/11/30 00:50:22;;;;;;;;;33.00;28.50;;;;;-147.17;100.00;50468.03;5044101;28;51207;-67
2021/11/30 00:52:48;;;;;;;;;15.00;14.50;;;;;-147.17;100.00;50477.88;5075593;28;50977;-65
2021/11/30 00:55:14;;;;;;;;;12.25;12.25;;;;;-147.17;100.00;50473.94;5075773;28;51202;-66
2021/11/30 00:57:40;;;;;;;;;14.25;12.75;;;;;-147.17;100.00;50442.44;5078536;28;50932;-66
2021/11/30 01:00:15;;;;;;;;;17.00;14.75;;;;;-147.17;100.00;50462.13;5076687;28;51226;-70
2021/11/30 01:02:41;;;;;;;;;16.00;15.75;;;;;-147.17;100.00;50446.38;5041213;28;51045;-69
2021/11/30 01:05:08;;;;;;;;;15.00;14.00;;;;;-147.17;100.00;50446.38;5072588;28;51063;-67
2021/11/30 01:07:35;;;;;;;;;14.25;13.50;;;;;-147.17;100.00;50450.31;5040959;28;50952;-69
2021/11/30 01:10:10;;;;;;;;;15.00;14.00;;;;;-147.17;100.00;50438.50;5072159;28;51112;-68
2021/11/30 01:12:36;;;;;;;;;13.50;12.25;;;;;-147.17;100.00;50434.56;5041806;28;51277;-67
2021/11/30 01:15:05;;;;;;;;;18.25;17.00;;;;;-147.17;100.00;50448.34;5073544;28;51048;-67
2021/11/30 01:17:31;;;;;;;;;14.75;13.75;;;;;-147.17;100.00;50446.38;5071832;27;51236;-66
2021/11/30 01:19:56;;;;;;;;;12.25;12.25;;;;;-147.17;100.00;50432.59;5059850;28;51065;-68
2021/11/30 01:22:21;;;;;;;;;7.00;7.00;;;;;-147.17;100.00;50442.44;5079023;28;50988;-68
2021/11/30 01:24:47;;;;;;;;;12.50;12.50;;;;;-147.17;100.00;50428.66;5049618;28;51051;-67
2021/11/30 01:27:12;;;;;;;;;16.75;13.00;;;;;-147.17;100.00;50428.66;5067638;27;51234;-68
2021/11/30 01:29:37;;;;;;;;;16.00;15.00;;;;;-147.17;100.00;50430.63;5075819;28;51008;-67
2021/11/30 01:32:03;;;;;;;;;12.75;12.75;;;;;-147.17;100.00;50442.44;5075917;28;51084;-66
2021/11/30 01:34:29;;;;;;;;;10.50;10.50;;;;;-147.17;100.00;50466.06;5073885;28;51245;-65
2021/11/30 01:36:55;;;;;;;;;15.25;11.50;;;;;-147.17;100.00;50403.06;5066104;28;52777;-66
2021/11/30 01:39:21;;;;;;;;;13.25;12.50;;;;;-147.17;100.00;50420.78;5045833;28;51052;-66
2021/11/30 01:41:47;;;;;;;;;17.25;14.75;;;;;-147.17;100.00;50450.31;5075609;28;51131;-66
2021/11/30 01:44:28;;;;;;;;;10.75;10.25;;;;;-147.17;100.00;50450.31;5073982;28;51168;-65
2021/11/30 01:47:06;;;;;;;;;15.00;13.50;;;;;-147.17;100.00;50440.47;5052337;28;52154;-65
2021/11/30 01:49:35;;;;;;;;;13.50;10.75;;;;;-147.17;100.00;50452.28;5071004;28;51088;-65
2021/11/30 01:52:02;;;;;;;;;15.00;13.25;;;;;-147.17;100.00;50460.16;5077363;28;50858;-67
2021/11/30 01:54:27;;;;;;;;;12.00;11.50;;;;;-147.17;100.00;50434.56;5075223;27;51264;-64
2021/11/30 01:56:53;;;;;;;;;11.25;11.25;;;;;-147.17;100.00;50434.56;5075805;28;51037;-64
2021/11/30 01:59:18;;;;;;;;;15.50;15.50;;;;;-147.17;100.00;50426.69;5076418;27;51122;-66
2021/11/30 02:01:44;;;;;;;;;12.00;12.00;;;;;-147.17;100.00;50450.31;5076886;28;51189;-66
2021/11/30 02:04:09;;;;;;;;;12.50;12.00;;;;;-147.17;100.00;50462.13;5078024;28;51048;-68
2021/11/30 02:06:34;;;;;;;;;11.25;11.25;;;;;-147.17;100.00;50458.19;5077004;28;51219;-65
2021/11/30 02:09:00;;;;;;;;;12.00;11.50;;;;;-147.17;100.00;50436.53;5072425;28;51214;-65
2021/11/30 02:11:26;;;;;;;;;11.75;11.25;;;;;-147.17;100.00;50458.19;5048940;28;51004;-65
2021/11/30 02:13:52;;;;;;;;;15.00;12.00;;;;;-147.17;100.00;50438.50;5066897;28;52254;-65
2021/11/30 02:16:19;;;;;;;;;12.00;12.00;;;;;-147.17;100.00;50430.63;5073470;28;51021;-66
2021/11/30 02:18:44;;;;;;;;;12.00;11.00;;;;;-147.17;100.00;50436.53;5068033;28;51050;-65
2021/11/30 02:21:11;;;;;;;;;14.50;11.75;;;;;-147.17;100.00;50444.41;5072332;28;50962;-66
2021/11/30 02:26:11;;;;;;;;;10.75;10.75;;;;;-147.17;100.00;50438.50;5073487;28;51157;-65
2021/11/30 02:28:43;;;;;;;;;14.75;12.50;;;;;-147.17;100.00;50450.31;5080792;27;50994;-64
2021/11/30 02:31:11;;;;;;;;;14.00;12.25;;;;;-147.17;100.00;50448.34;5043177;28;51294;-66
2021/11/30 02:33:38;;;;;;;;;15.50;13.75;;;;;-147.17;100.00;50434.56;5060864;28;51359;-65
2021/11/30 02:36:34;;;;;;;;;14.00;13.00;;;;;-147.17;100.00;50440.47;5077806;28;51923;-67
2021/11/30 02:39:01;;;;;;;;;12.50;11.75;;;;;-147.17;100.00;50436.53;5065623;28;50943;-65
2021/11/30 02:41:26;;;;;;;;;13.75;13.75;;;;;-147.17;100.00;50450.31;5074182;28;51251;-65
2021/11/30 02:43:53;;;;;;;;;11.00;11.00;;;;;-147.17;100.00;50426.69;5076879;28;50968;-68
2021/11/30 02:46:58;;;;;;;;;15.75;15.00;;;;;-147.17;100.00;50448.34;5078337;28;52141;-68
2021/11/30 02:49:28;;;;;;;;;14.25;13.00;;;;;-147.17;100.00;50462.13;5051882;28;50948;-63
2021/11/30 02:52:02;;;;;;;;;13.75;12.00;;;;;-147.17;100.00;50430.63;5064323;28;50970;-67
2021/11/30 02:54:28;;;;;;;;;7.00;7.00;;;;;-147.17;100.00;50460.16;5061560;28;51460;-68
2021/11/30 02:56:59;;;;;;;;;13.25;11.75;;;;;-147.17;100.00;50412.91;5079689;28;51916;-63
2021/11/30 02:59:27;;;;;;;;;17.50;15.50;;;;;-147.17;100.00;50450.31;5064560;28;50868;-64
2021/11/30 03:01:56;;;;;;;;;12.00;11.75;;;;;-147.17;100.00;50424.72;5077324;28;51418;-67
2021/11/30 03:04:22;;;;;;;;;15.00;12.75;;;;;-147.17;100.00;50452.28;5039259;28;51152;-68
2021/11/30 03:06:47;;;;;;;;;13.50;13.50;;;;;-147.17;100.00;50436.53;5079148;28;53008;-67
2021/11/30 03:09:13;;;;;;;;;14.25;13.25;;;;;-147.17;100.00;50466.06;5069907;28;50976;-66
2021/11/30 03:11:40;;;;;;;;;13.50;12.25;;;;;-147.17;100.00;50452.28;5070778;27;51135;-62
2021/11/30 03:14:06;;;;;;;;;10.75;10.75;;;;;-147.17;100.00;50442.44;5071140;28;51324;-64
2021/11/30 03:16:32;;;;;;;;;12.00;11.00;;;;;-147.17;100.00;50434.56;5073361;27;51958;-64
2021/11/30 03:18:58;;;;;;;;;12.75;11.25;;;;;-147.17;100.00;50460.16;5079445;28;51148;-67
2021/11/30 03:21:23;;;;;;;;;11.75;11.25;;;;;-147.17;100.00;50452.28;5074727;27;51368;-68
2021/11/30 03:23:49;;;;;;;;;12.25;12.00;;;;;-147.17;100.00;50450.31;5075669;28;51122;-69
2021/11/30 03:26:15;;;;;;;;;11.25;11.00;;;;;-147.17;100.00;50448.34;5079982;28;51859;-73
2021/11/30 03:28:44;;;;;;;;;12.25;12.00;;;;;-147.17;100.00;50448.34;5060976;28;50479;-73
2021/11/30 03:31:21;;;;;;;;;13.25;11.50;;;;;-147.17;100.00;50446.38;5079610;28;50926;-73
2021/11/30 03:33:58;;;;;;;;;11.00;11.00;;;;;-147.17;100.00;50454.25;5078503;28;50447;-74
2021/11/30 03:36:24;;;;;;;;;11.00;11.00;;;;;-147.17;100.00;50452.28;5071741;28;51128;-74
2021/11/30 03:38:49;;;;;;;;;12.50;11.50;;;;;-147.17;100.00;50434.56;5078166;28;50964;-70
2021/11/30 03:41:15;;;;;;;;;12.50;12.25;;;;;-147.17;100.00;50475.91;5058620;28;51194;-69
2021/11/30 03:43:40;;;;;;;;;12.50;10.75;;;;;-147.17;100.00;50462.13;5054959;28;51205;-69
2021/11/30 03:46:06;;;;;;;;;13.25;13.25;;;;;-147.17;100.00;50458.19;5077756;28;51829;-71
2021/11/30 03:48:32;;;;;;;;;15.50;15.50;;;;;-147.17;100.00;50428.66;5083208;27;51039;-73
2021/11/30 03:50:57;;;;;;;;;10.75;10.50;;;;;-147.17;100.00;50446.38;5078918;28;51149;-71
2021/11/30 03:53:23;;;;;;;;;12.50;11.75;;;;;-147.17;100.00;50444.41;5080310;28;50937;-70
2021/11/30 03:55:49;;;;;;;;;13.75;12.25;;;;;-147.17;100.00;50436.53;5068825;28;51035;-68
2021/11/30 03:58:14;;;;;;;;;15.25;13.50;;;;;-147.17;100.00;50422.75;5076758;28;50858;-68
2021/11/30 04:00:39;;;;;;;;;12.50;12.50;;;;;-147.17;100.00;50444.41;5077081;28;50931;-70
2021/11/30 04:03:05;;;;;;;;;16.25;16.25;;;;;-147.17;100.00;50434.56;5077603;28;51130;-67
2021/11/30 04:05:31;;;;;;;;;10.25;10.25;;;;;-147.17;100.00;50430.63;5070433;28;51640;-67
2021/11/30 04:07:57;;;;;;;;;11.00;10.50;;;;;-147.17;100.00;50426.69;5067680;28;51116;-72
2021/11/30 04:10:22;;;;;;;;;11.75;10.75;;;;;-147.17;100.00;50422.75;5073455;28;51081;-70
2021/11/30 04:12:49;;;;;;;;;10.75;9.50;;;;;-147.17;100.00;50407.00;5058035;28;51465;-71
2021/11/30 04:15:15;;;;;;;;;13.75;12.50;;;;;-147.17;100.00;50414.88;5061097;28;50949;-72
2021/11/30 04:17:41;;;;;;;;;15.25;12.50;;;;;-147.17;100.00;50389.28;5078573;28;51156;-70
2021/11/30 04:20:11;;;;;;;;;12.00;12.00;;;;;-147.17;100.00;50403.06;5073597;28;51207;-70
2021/11/30 04:22:37;;;;;;;;;15.25;15.00;;;;;-147.17;100.00;50407.00;5074334;28;50918;-68
2021/11/30 04:25:04;;;;;;;;;12.50;12.00;;;;;-147.17;100.00;50410.94;5072476;27;51977;-69
2021/11/30 04:27:31;;;;;;;;;14.25;14.00;;;;;-147.17;100.00;50391.25;5079426;27;51234;-69
2021/11/30 04:29:56;;;;;;;;;16.00;15.00;;;;;-147.17;100.00;50399.13;5075435;28;51025;-68
2021/11/30 04:32:21;;;;;;;;;15.25;14.00;;;;;-147.17;100.00;50397.16;5052713;28;51328;-66
2021/11/30 04:34:47;;;;;;;;;14.00;14.00;;;;;-147.17;100.00;50391.25;5066052;28;51225;-68
2021/11/30 04:37:12;;;;;;;;;11.00;11.00;;;;;-147.17;100.00;50399.13;5057417;28;51250;-69
2021/11/30 04:39:37;;;;;;;;;11.50;11.50;;;;;-147.17;100.00;50403.06;5040361;28;51335;-68
2021/11/30 04:42:03;;;;;;;;;13.25;13.25;;;;;-147.17;100.00;50395.19;5067615;28;51374;-68
2021/11/30 04:44:31;;;;;;;;;12.75;12.75;;;;;-147.17;100.00;50389.28;5063284;28;51294;-69
2021/11/30 04:47:04;;;;;;;;;16.25;13.50;;;;;-147.17;100.00;50379.44;5058603;28;51069;-69
2021/11/30 04:51:58;;;;;;;;;14.50;13.50;;;;;-147.17;100.00;50403.06;5054320;28;51176;-69
2021/11/30 04:54:25;;;;;;;;;11.50;11.50;;;;;-147.17;100.00;50367.63;5049374;28;53055;-68
2021/11/30 04:56:51;;;;;;;;;14.25;14.25;;;;;-147.17;100.00;50383.38;5066061;28;51158;-69
2021/11/30 04:59:18;;;;;;;;;15.25;15.00;;;;;-147.17;100.00;50359.75;5066517;28;51213;-69
2021/11/30 05:01:43;;;;;;;;;13.00;12.75;;;;;-147.17;100.00;50383.38;5051979;28;50921;-70
2021/11/30 05:04:09;;;;;;;;;17.50;15.00;;;;;-147.17;100.00;50397.16;5058533;28;53810;-69
2021/11/30 05:06:36;;;;;;;;;16.25;14.25;;;;;-147.17;100.00;50391.25;5063355;27;51206;-69
2021/11/30 05:09:03;;;;;;;;;13.75;11.50;;;;;-147.17;100.00;50367.63;5056772;28;50949;-69
2021/11/30 05:11:28;;;;;;;;;15.00;12.00;;;;;-147.17;100.00;50389.28;5069846;28;51382;-68
2021/11/30 05:13:54;;;;;;;;;11.00;10.75;;;;;-147.17;100.00;50379.44;5069860;28;50913;-68
2021/11/30 05:16:19;;;;;;;;;11.25;10.00;;;;;-147.17;100.00;50383.38;5069379;28;51122;-67
2021/11/30 05:18:45;;;;;;;;;15.75;14.75;;;;;-147.17;100.00;50359.75;5072761;28;50970;-68
2021/11/30 05:21:10;;;;;;;;;14.50;12.25;;;;;-147.17;100.00;50379.44;5072918;28;51202;-67
2021/11/30 05:23:36;;;;;;;;;13.00;11.25;;;;;-147.17;100.00;50383.38;5057757;28;52855;-69
2021/11/30 05:26:04;;;;;;;;;13.25;13.25;;;;;-147.17;100.00;50375.50;5059628;28;51053;-69
2021/11/30 05:28:30;;;;;;;;;17.25;13.75;;;;;-147.17;100.00;50383.38;5068926;27;51141;-69
2021/11/30 05:30:55;;;;;;;;;12.25;11.00;;;;;-147.17;100.00;50361.72;5065747;28;51176;-68
2021/11/30 05:33:21;;;;;;;;;10.50;8.75;;;;;-147.17;100.00;50357.78;5056174;28;51727;-68
2021/11/30 05:35:46;;;;;;;;;13.00;11.50;;;;;-147.17;100.00;50367.63;5059783;28;51103;-67
2021/11/30 05:38:12;;;;;;;;;13.50;11.50;;;;;-147.17;100.00;50389.28;5069667;28;51033;-68
2021/11/30 05:40:40;;;;;;;;;11.00;10.75;;;;;-147.17;100.00;50377.47;5063155;28;50952;-67
2021/11/30 05:43:06;;;;;;;;;7.00;7.00;;;;;-147.17;100.00;50379.44;5066604;28;51846;-67
2021/11/30 05:45:32;;;;;;;;;11.50;11.25;;;;;-147.17;100.00;50369.59;5072978;28;51162;-68
2021/11/30 05:47:57;;;;;;;;;13.00;11.25;;;;;-147.17;100.00;50351.88;5070118;28;50975;-68
2021/11/30 05:50:23;;;;;;;;;13.50;11.25;;;;;-147.17;100.00;50363.69;5056466;28;51187;-68
2021/11/30 05:52:49;;;;;;;;;13.25;11.25;;;;;-147.17;100.00;50359.75;5056066;28;51009;-68
2021/11/30 05:55:15;;;;;;;;;11.50;11.00;;;;;-147.17;100.00;50363.69;5045935;28;51013;-68
2021/11/30 05:57:41;;;;;;;;;12.25;10.50;;;;;-147.17;100.00;50326.28;5069861;28;51172;-68
2021/11/30 06:00:08;;;;;;;;;10.50;10.25;;;;;-147.17;100.00;50351.88;5059279;28;51097;-69
2021/11/30 06:02:49;;;;;;;;;11.75;11.00;;;;;-147.17;100.00;50365.66;5053647;27;53756;-67
2021/11/30 06:05:15;;;;;;;;;12.25;12.25;;;;;-147.17;100.00;50344.00;5061995;28;51132;-69
2021/11/30 06:07:40;;;;;;;;;12.00;11.00;;;;;-147.17;100.00;50316.44;5067153;28;51047;-69
2021/11/30 06:10:06;;;;;;;;;14.00;12.00;;;;;-147.17;100.00;50351.88;5062271;28;51045;-67
2021/11/30 06:12:31;;;;;;;;;12.75;11.50;;;;;-147.17;100.00;50351.88;5041416;28;51878;-68
2021/11/30 06:14:56;;;;;;;;;10.50;10.50;;;;;-147.17;100.00;50338.09;5065564;28;51070;-69
2021/11/30 06:17:22;;;;;;;;;10.25;10.25;;;;;-147.17;100.00;50338.09;5070758;28;51076;-68
2021/11/30 06:19:47;;;;;;;;;8.25;8.25;;;;;-147.17;100.00;50342.03;5072260;28;51254;-69
2021/11/30 06:22:12;;;;;;;;;9.50;9.50;;;;;-147.17;100.00;50355.81;5065213;28;51747;-67
2021/11/30 06:24:38;;;;;;;;;9.00;9.00;;;;;-147.17;100.00;50332.19;5074754;27;51211;-69
2021/11/30 06:27:03;;;;;;;;;11.00;10.00;;;;;-147.17;100.00;50324.31;5073094;27;51176;-68
2021/11/30 06:29:30;;;;;;;;;7.00;7.00;;;;;-147.17;100.00;50375.50;5053334;28;51254;-69
2021/11/30 06:31:55;;;;;;;;;9.75;9.00;;;;;-147.17;100.00;50320.38;5069399;28;51844;-69
2021/11/30 06:34:21;;;;;;;;;7.00;7.00;;;;;-147.17;100.00;50338.09;5071066;28;51105;-69
2021/11/30 06:36:46;;;;;;;;;10.50;10.25;;;;;-147.17;100.00;50344.00;5046410;28;51627;-68
2021/11/30 06:39:12;;;;;;;;;13.25;12.50;;;;;-147.17;100.00;50316.44;5051846;28;50936;-67
2021/11/30 06:41:38;;;;;;;;;11.75;11.75;;;;;-147.17;100.00;50351.88;5066659;28;52900;-68
2021/11/30 06:44:03;;;;;;;;;10.25;10.00;;;;;-147.17;100.00;50365.66;5079321;27;51069;-69
2021/11/30 06:46:29;;;;;;;;;11.50;11.50;;;;;-147.17;100.00;50353.84;5025106;28;51190;-67
2021/11/30 06:48:54;;;;;;;;;12.00;11.50;;;;;-147.17;100.00;50347.94;5073132;27;51164;-67
2021/11/30 06:51:19;;;;;;;;;13.25;10.75;;;;;-147.17;100.00;50347.94;5068763;28;51687;-68
2021/11/30 06:53:45;;;;;;;;;13.50;13.00;;;;;-147.17;100.00;50332.19;5049947;28;51463;-68
2021/11/30 06:56:10;;;;;;;;;12.25;11.25;;;;;-147.17;100.00;50355.81;5045179;27;51623;-67
2021/11/30 06:58:36;;;;;;;;;16.00;11.00;;;;;-147.17;100.00;50345.97;5070735;28;51593;-67
2021/11/30 07:01:01;;;;;;;;;10.50;10.50;;;;;-147.17;100.00;50359.75;5063826;28;51058;-69
2021/11/30 07:03:27;;;;;;;;;12.75;12.75;;;;;-147.17;100.00;50369.59;5071349;28;51048;-68
2021/11/30 07:05:58;;;;;;;;;11.50;11.50;;;;;-147.17;100.00;50344.00;5062130;28;50963;-67
2021/11/30 07:08:46;;;;;;;;;8.50;8.50;;;;;-147.17;100.00;50375.50;5067893;28;50913;-69
2021/11/30 07:11:19;;;;;;;;;14.50;13.50;;;;;-147.17;100.00;50359.75;5064014;28;51601;-69
2021/11/30 07:13:44;;;;;;;;;11.50;10.75;;;;;-147.17;100.00;50355.81;5073996;28;51112;-68
2021/11/30 07:16:09;;;;;;;;;11.00;9.25;;;;;-147.17;100.00;50355.81;5067898;27;50929;-68
2021/11/30 07:18:35;;;;;;;;;12.00;12.00;;;;;-147.17;100.00;50324.31;5071794;28;50855;-68
2021/11/30 07:21:01;;;;;;;;;2.75;2.00;;;;;-147.17;100.00;50373.53;5073126;28;51775;-67
2021/11/30 07:23:29;;;;;;;;;11.25;9.75;;;;;-147.17;100.00;50347.94;5065529;28;53517;-67
2021/11/30 07:25:54;;;;;;;;;12.50;11.00;;;;;-147.17;100.00;50373.53;5073674;27;51212;-69
2021/11/30 07:28:29;;;;;;;;;10.00;8.75;;;;;-147.17;100.00;50318.41;5075214;27;51313;-67
2021/11/30 07:31:05;;;;;;;;;12.00;11.00;;;;;-147.17;100.00;50371.56;5061927;28;52898;-67
2021/11/30 07:33:36;;;;;;;;;13.75;13.00;;;;;-147.17;100.00;50347.94;5067359;27;51209;-68
2021/11/30 07:36:02;;;;;;;;;16.75;14.25;;;;;-147.17;100.00;50336.13;5073044;27;50997;-68
2021/11/30 07:38:27;;;;;;;;;18.25;15.25;;;;;-147.17;100.00;50353.84;5073259;28;50961;-68
2021/11/30 07:40:53;;;;;;;;;15.75;13.00;;;;;-147.17;100.00;50371.56;5074264;28;51747;-69
2021/11/30 07:43:19;;;;;;;;;12.75;12.50;;;;;-147.17;100.00;50344.00;5056346;28;51190;-68
2021/11/30 07:45:44;;;;;;;;;15.75;14.25;;;;;-147.17;100.00;50355.81;5071245;28;50937;-69
2021/11/30 07:48:10;;;;;;;;;12.75;12.25;;;;;-147.17;100.00;50381.41;5064414;28;51438;-68
2021/11/30 07:50:36;;;;;;;;;13.00;12.00;;;;;-147.17;100.00;50359.75;5054645;28;53388;-69
2021/11/30 07:53:01;;;;;;;;;14.75;13.50;;;;;-147.17;100.00;50361.72;5067025;28;51096;-67
2021/11/30 07:55:27;;;;;;;;;17.50;16.75;;;;;-147.17;100.00;50387.31;5055628;28;51093;-71
2021/11/30 07:57:53;;;;;;;;;17.50;16.00;;;;;-147.17;100.00;50328.25;5071809;28;51382;-73
2021/11/30 08:00:19;;;;;;;;;15.75;15.75;;;;;-147.17;100.00;50345.97;5068855;27;51906;-75
2021/11/30 08:02:45;;;;;;;;;15.75;15.75;;;;;-147.17;100.00;50344.00;5069840;27;52044;-73
2021/11/30 08:05:12;;;;;;;;;22.00;17.25;;;;;-147.17;100.00;50371.56;5082546;27;51245;-76
2021/11/30 08:07:38;;;;;;;;;17.00;17.00;;;;;-147.17;100.00;50361.72;5076826;28;51306;-75
2021/11/30 08:10:08;;;;;;;;;15.50;14.00;;;;;-147.17;100.00;50369.59;5060557;28;51822;-75
2021/11/30 08:12:33;;;;;;;;;15.25;14.50;;;;;-147.17;100.00;50379.44;5054797;28;51047;-79
2021/11/30 08:14:59;;;;;;;;;17.00;16.25;;;;;-147.17;100.00;50361.72;5056861;28;51266;-76
2021/11/30 08:17:24;;;;;;;;;17.25;16.00;;;;;-147.17;100.00;50363.69;5073164;28;51381;-79
2021/11/30 08:19:49;;;;;;;;;13.00;12.25;;;;;-147.17;100.00;50375.50;5067679;28;51815;-78
2021/11/30 08:22:16;;;;;;;;;21.00;18.75;;;;;-147.17;100.00;50387.31;5070309;28;51073;-78
2021/11/30 08:24:42;;;;;;;;;17.00;15.50;;;;;-147.17;100.00;50391.25;5037748;28;51242;-79
2021/11/30 08:27:07;;;;;;;;;16.75;16.75;;;;;-147.17;100.00;50387.31;5053083;28;51351;-80
2021/11/30 08:29:38;;;;;;;;;16.00;15.00;;;;;-147.17;100.00;50367.63;5060585;27;51076;-70
2021/11/30 08:32:03;;;;;;;;;23.50;19.50;;;;;-147.17;100.00;50379.44;5051789;28;51294;-69
2021/11/30 08:34:29;;;;;;;;;22.00;20.50;;;;;-147.17;100.00;50369.59;5044402;28;51045;-69
2021/11/30 08:36:54;;;;;;;;;21.75;18.00;;;;;-147.17;100.00;50389.28;5050863;28;51272;-70
2021/11/30 08:39:20;;;;;;;;;20.75;18.50;;;;;-147.17;100.00;50369.59;5051750;28;51776;-68
2021/11/30 08:41:45;;;;;;;;;18.75;17.75;;;;;-147.17;100.00;50361.72;5051879;28;51088;-69
2021/11/30 08:44:11;;;;;;;;;21.50;17.75;;;;;-147.17;100.00;50381.41;5049840;28;51461;-69
2021/11/30 08:46:36;;;;;;;;;17.75;17.75;;;;;-147.17;100.00;50371.56;5051057;28;51123;-69
2021/11/30 08:49:02;;;;;;;;;20.75;17.75;;;;;-147.17;100.00;50347.94;5052504;28;52077;-67
2021/11/30 08:51:28;;;;;;;;;17.00;16.75;;;;;-147.17;100.00;50359.75;5050419;28;51135;-68
2021/11/30 08:53:53;;;;;;;;;18.25;16.50;;;;;-147.17;100.00;50391.25;5042519;28;51295;-69
2021/11/30 08:56:19;;;;;;;;;16.50;14.75;;;;;-147.17;100.00;50363.69;5039668;28;51273;-69
2021/11/30 08:58:44;;;;;;;;;15.75;15.50;;;;;-147.17;100.00;50365.66;5050052;28;51754;-68
2021/11/30 09:01:10;;;;;;;;;19.00;18.00;;;;;-147.17;100.00;50344.00;5054532;28;51181;-68
2021/11/30 09:03:35;;;;;;;;;19.00;19.00;;;;;-147.17;100.00;50336.13;5054247;28;51143;-68
2021/11/30 09:06:01;;;;;;;;;18.50;18.00;;;;;-147.17;100.00;50375.50;5052564;28;51163;-69
2021/11/30 09:08:27;;;;;;;;;21.00;20.00;;;;;-147.17;100.00;50367.63;5044091;28;52219;-69
2021/11/30 09:10:52;;;;;;;;;18.50;17.50;;;;;-147.17;100.00;50355.81;5051777;28;51264;-68
2021/11/30 09:13:18;;;;;;;;;18.75;17.75;;;;;-147.17;100.00;50367.63;5040429;28;51074;-70
2021/11/30 09:15:43;;;;;;;;;19.50;18.00;;;;;-147.17;100.00;50347.94;5051006;28;51189;-70
2021/11/30 09:18:09;;;;;;;;;19.50;19.50;;;;;-147.17;100.00;50347.94;5051323;28;50985;-69
2021/11/30 09:20:35;;;;;;;;;23.75;21.25;;;;;-147.17;100.00;50363.69;5044408;28;50988;-68
2021/11/30 09:23:01;;;;;;;;;20.75;19.50;;;;;-147.17;100.00;50347.94;5044354;28;51109;-69
2021/11/30 09:25:27;;;;;;;;;23.25;17.50;;;;;-147.17;100.00;50332.19;5066798;28;51324;-68
2021/11/30 09:27:53;;;;;;;;;17.00;16.00;;;;;-147.17;100.00;50375.50;5074459;27;51859;-70
2021/11/30 09:30:22;;;;;;;;;21.50;19.25;;;;;-147.17;100.00;50371.56;5067071;28;51421;-72
2021/11/30 09:32:50;;;;;;;;;22.50;21.50;;;;;-147.17;100.00;50367.63;5068913;28;51149;-69
2021/11/30 09:35:20;;;;;;;;;25.50;22.50;;;;;-147.17;100.00;50379.44;5071945;28;51145;-70
2021/11/30 09:37:49;;;;;;;;;25.00;23.75;;;;;-147.17;100.00;50371.56;5065190;28;52796;-70
2021/11/30 09:40:18;;;;;;;;;20.75;18.50;;;;;-147.17;100.00;50342.03;5054133;28;51252;-69
2021/11/30 09:42:44;;;;;;;;;23.00;22.00;;;;;-147.17;100.00;50336.13;5048332;28;50933;-70
2021/11/30 09:45:11;;;;;;;;;24.25;22.75;;;;;-147.17;100.00;50351.88;5034440;28;50991;-71
2021/11/30 09:47:38;;;;;;;;;20.25;19.50;;;;;-147.17;100.00;50363.69;5033871;28;52968;-70
2021/11/30 09:50:05;;;;;;;;;22.50;21.50;;;;;-147.17;100.00;50355.81;5052195;28;51164;-71
2021/11/30 09:52:30;;;;;;;;;25.50;22.75;;;;;-147.17;100.00;50351.88;5051444;28;51292;-70
2021/11/30 09:54:56;;;;;;;;;19.25;17.75;;;;;-147.17;100.00;50342.03;5051048;28;50921;-70
2021/11/30 09:57:22;;;;;;;;;23.25;21.50;;;;;-147.17;100.00;50353.84;5055819;28;51867;-70
2021/11/30 09:59:48;;;;;;;;;21.00;19.25;;;;;-147.17;100.00;50363.69;5061716;28;50982;-69
2021/11/30 10:02:15;;;;;;;;;19.00;16.25;;;;;-147.17;100.00;50353.84;5050570;28;51123;-71
2021/11/30 10:04:41;;;;;;;;;22.25;18.75;;;;;-147.17;100.00;50347.94;5052402;28;51168;-70
2021/11/30 10:07:07;;;;;;;;;22.25;21.50;;;;;-147.17;100.00;50383.38;5051116;28;51030;-72
2021/11/30 10:09:33;;;;;;;;;17.00;15.75;;;;;-147.17;100.00;50342.03;5033660;28;51096;-70
2021/11/30 10:12:03;;;;;;;;;23.75;22.00;;;;;-147.17;100.00;50338.09;5052411;28;51103;-70
2021/11/30 10:14:35;;;;;;;;;28.25;24.00;;;;;-147.17;100.00;50306.63;5034322;28;51119;-72
2021/11/30 10:17:19;;;;;;;;;21.50;20.00;;;;;-147.17;100.00;50347.94;5034552;28;50948;-70
2021/11/30 10:20:01;;;;;;;;;20.25;18.00;;;;;-147.17;100.00;50312.53;5051805;28;51247;-70
2021/11/30 10:22:39;;;;;;;;;19.50;17.75;;;;;-147.17;100.00;50332.19;5051376;28;51133;-70
2021/11/30 10:25:28;;;;;;;;;22.00;19.50;;;;;-147.17;100.00;50344.00;5051709;28;51238;-70
2021/11/30 10:28:00;;;;;;;;;21.50;19.75;;;;;-147.17;100.00;50357.78;5061405;27;51835;-70
2021/11/30 10:30:31;;;;;;;;;20.25;18.50;;;;;-147.17;100.00;50369.59;5062590;28;50978;-70
2021/11/30 10:33:02;;;;;;;;;20.00;19.00;;;;;-147.17;100.00;50326.28;5034177;28;51389;-70
2021/11/30 10:35:29;;;;;;;;;22.50;20.50;;;;;-147.17;100.00;50338.09;5052203;28;50944;-70
2021/11/30 10:37:58;;;;;;;;;20.75;20.75;;;;;-147.17;100.00;50367.63;5051244;28;51957;-70
2021/11/30 10:40:27;;;;;;;;;20.25;19.75;;;;;-147.17;100.00;50367.63;5056249;28;51086;-71
2021/11/30 10:42:56;;;;;;;;;21.00;19.50;;;;;-147.17;100.00;50359.75;5052840;28;51073;-71
2021/11/30 10:45:33;;;;;;;;;20.50;18.00;;;;;-147.17;100.00;50365.66;5053480;28;50918;-71
2021/11/30 10:48:27;;;;;;;;;19.00;17.75;;;;;-147.17;100.00;50373.53;5062795;28;51668;-69
2021/11/30 10:50:56;;;;;;;;;17.75;16.50;;;;;-147.17;100.00;50367.63;5060210;28;51391;-70
2021/11/30 10:53:28;;;;;;;;;21.50;19.50;;;;;-147.17;100.00;50330.22;5075079;28;50969;-70
2021/11/30 10:55:56;;;;;;;;;17.50;17.25;;;;;-147.17;100.00;50367.63;5074936;28;51364;-70
2021/11/30 10:58:24;;;;;;;;;14.50;12.75;;;;;-147.17;100.00;50355.81;5074682;27;51064;-71
2021/11/30 11:00:51;;;;;;;;;18.00;15.50;;;;;-147.17;100.00;50345.97;5055581;28;50963;-70